Time;durP1;ratioP1;P1;durP2;ratioP2;P2;SDS_P1;SDS_P2;PMS_P1;PMS_P2;Temp;Humidity;BMP_temperature;BMP_pressure;BME280_temperature;BME280_humidity;BME280_pressure;Samples;Min_cycle;Max_cycle;Signal;HPM_P1;HPM_P2
2022/10/04 00:02:12;;;;;;;;;;;12.50;99.90;;;;;;5028449;28;20035;-82
2022/10/04 00:04:40;;;;;;;;;;;12.50;99.90;;;;;;5025111;28;19968;-81
2022/10/04 00:07:13;;;;;;;;;;;12.40;99.90;;;;;;5028661;28;19990;-81
2022/10/04 00:09:49;;;;;;;;;;;12.30;99.90;;;;;;5029357;28;20606;-81
2022/10/04 00:12:26;;;;;;;;;;;12.40;99.90;;;;;;5027383;28;20039;-81
2022/10/04 00:14:52;;;;;;;;;;;12.30;99.90;;;;;;5026035;28;19921;-80
2022/10/04 00:17:23;;;;;;;;;;;12.30;99.90;;;;;;5027836;28;19917;-80
2022/10/04 00:19:49;;;;;;;;;;;12.30;99.90;;;;;;5020858;28;19955;-81
2022/10/04 00:22:19;;;;;;;;;;;12.20;99.90;;;;;;5028997;28;19917;-80
2022/10/04 00:24:59;;;;;;;;;;;12.20;99.90;;;;;;5028599;28;19921;-81
2022/10/04 00:27:26;;;;;;;;;;;12.20;99.90;;;;;;5018156;28;20027;-81
2022/10/04 00:30:00;;;;;;;;;;;12.20;99.90;;;;;;5028566;28;19952;-80
2022/10/04 00:32:41;;;;;;;;;;;12.20;99.90;;;;;;5029191;28;19917;-79
2022/10/04 00:35:26;;;;;;;;;;;12.10;99.90;;;;;;5027293;28;19972;-80
2022/10/04 00:38:11;;;;;;;;;;;12.10;99.90;;;;;;5027343;28;20363;-79
2022/10/04 00:41:09;;;;;;;;;;;12.10;99.90;;;;;;5022262;28;20367;-79
2022/10/04 00:43:39;;;;;;;;;;;12.10;99.90;;;;;;5013413;28;20010;-81
2022/10/04 00:46:13;;;;;;;;;;;12.00;99.90;;;;;;5027198;28;20014;-81
2022/10/04 00:48:48;;;;;;;;;;;12.00;99.90;;;;;;5026251;28;19943;-80
2022/10/04 00:51:25;;;;;;;;;;;12.00;99.90;;;;;;5027248;28;19917;-81
2022/10/04 00:54:02;;;;;;;;;;;12.00;99.90;;;;;;5025758;28;19917;-81
2022/10/04 00:56:31;;;;;;;;;;;12.00;99.90;;;;;;5028252;28;19917;-81
2022/10/04 00:59:03;;;;;;;;;;;11.90;99.90;;;;;;5040092;28;19913;-82
2022/10/04 01:01:30;;;;;;;;;;;11.90;99.90;;;;;;5025924;28;19924;-83
2022/10/04 01:03:58;;;;;;;;;;;11.90;99.90;;;;;;5024724;28;19946;-83
2022/10/04 01:06:25;;;;;;;;;;;11.90;99.90;;;;;;5027779;28;19917;-83
2022/10/04 01:08:52;;;;;;;;;;;11.90;99.90;;;;;;5028034;28;20123;-81
2022/10/04 01:11:28;;;;;;;;;;;11.90;99.90;;;;;;5027890;28;19921;-82
2022/10/04 01:13:53;;;;;;;;;;;11.90;99.90;;;;;;5027623;28;19917;-82
2022/10/04 01:16:21;;;;;;;;;;;12.00;99.90;;;;;;5028003;28;20395;-81
2022/10/04 01:18:47;;;;;;;;;;;11.80;99.90;;;;;;5027560;28;20055;-81
2022/10/04 01:21:15;;;;;;;;;;;11.80;99.90;;;;;;5021005;28;20072;-81
2022/10/04 01:23:51;;;;;;;;;;;11.70;99.90;;;;;;5017616;28;19967;-82
2022/10/04 01:26:22;;;;;;;;;;;11.70;99.90;;;;;;5025423;28;19956;-81
2022/10/04 01:28:48;;;;;;;;;;;11.60;99.90;;;;;;5026949;28;19917;-82
2022/10/04 01:31:14;;;;;;;;;;;11.60;99.90;;;;;;5024123;28;19924;-81
2022/10/04 01:33:40;;;;;;;;;;;11.60;99.90;;;;;;5026193;28;19917;-81
2022/10/04 01:36:06;;;;;;;;;;;11.60;99.90;;;;;;5026129;28;19924;-80
2022/10/04 01:38:31;;;;;;;;;;;11.50;99.90;;;;;;5020977;28;19917;-81
2022/10/04 01:40:59;;;;;;;;;;;11.50;99.90;;;;;;5026276;28;19917;-80
2022/10/04 01:43:28;;;;;;;;;;;11.50;99.90;;;;;;5025705;28;19913;-80
2022/10/04 01:45:57;;;;;;;;;;;11.40;99.90;;;;;;5024874;28;19921;-81
2022/10/04 01:48:24;;;;;;;;;;;11.40;99.90;;;;;;5023197;28;19927;-80
2022/10/04 01:50:56;;;;;;;;;;;11.40;99.90;;;;;;5026677;28;19921;-81
2022/10/04 01:53:29;;;;;;;;;;;11.40;99.90;;;;;;5027225;28;20387;-82
2022/10/04 01:56:02;;;;;;;;;;;11.40;99.90;;;;;;5041229;28;19917;-80
2022/10/04 01:58:31;;;;;;;;;;;11.40;99.90;;;;;;5026436;28;19917;-81
2022/10/04 02:00:59;;;;;;;;;;;11.30;99.90;;;;;;5027434;28;20018;-81
2022/10/04 02:03:37;;;;;;;;;;;11.30;99.90;;;;;;5026172;28;19951;-80
2022/10/04 02:06:04;;;;;;;;;;;11.20;99.90;;;;;;5028770;28;19921;-82
2022/10/04 02:08:31;;;;;;;;;;;11.20;99.90;;;;;;5029350;28;20484;-83
2022/10/04 02:10:58;;;;;;;;;;;11.20;99.90;;;;;;5029130;28;20590;-82
2022/10/04 02:13:28;;;;;;;;;;;11.20;99.90;;;;;;5030994;28;19917;-83
2022/10/04 02:15:54;;;;;;;;;;;11.20;99.90;;;;;;5030279;28;19924;-80
2022/10/04 02:18:21;;;;;;;;;;;11.10;99.90;;;;;;5028515;28;20384;-82
2022/10/04 02:20:48;;;;;;;;;;;11.10;99.90;;;;;;5030735;28;20398;-82
2022/10/04 02:23:15;;;;;;;;;;;11.10;99.90;;;;;;5030838;28;20414;-81
2022/10/04 02:25:41;;;;;;;;;;;11.10;99.90;;;;;;5031403;28;19924;-82
2022/10/04 02:28:10;;;;;;;;;;;11.10;99.90;;;;;;5030517;28;19917;-80
2022/10/04 02:30:37;;;;;;;;;;;11.00;99.90;;;;;;5026348;28;20712;-80
2022/10/04 02:33:03;;;;;;;;;;;11.00;99.90;;;;;;5030173;28;19917;-80
2022/10/04 02:35:30;;;;;;;;;;;11.00;99.90;;;;;;5024575;28;19917;-80
2022/10/04 02:38:18;;;;;;;;;;;11.00;99.90;;;;;;5029405;28;20362;-80
2022/10/04 02:40:53;;;;;;;;;;;10.90;99.90;;;;;;5029926;28;19913;-80
2022/10/04 02:43:22;;;;;;;;;;;10.90;99.90;;;;;;5031021;28;20292;-82
2022/10/04 02:45:47;;;;;;;;;;;10.90;99.90;;;;;;5029268;28;19963;-81
2022/10/04 02:48:31;;;;;;;;;;;10.80;99.90;;;;;;5030313;28;19917;-80
2022/10/04 02:51:01;;;;;;;;;;;10.80;99.90;;;;;;5028481;28;20368;-80
2022/10/04 02:53:31;;;;;;;;;;;10.80;99.90;;;;;;5031152;28;19917;-80
2022/10/04 02:55:56;;;;;;;;;;;10.70;99.90;;;;;;5030735;28;19924;-80
2022/10/04 02:58:23;;;;;;;;;;;10.70;99.90;;;;;;5030095;28;19921;-79
2022/10/04 03:00:50;;;;;;;;;;;10.70;99.90;;;;;;5030319;28;20028;-79
2022/10/04 03:03:22;;;;;;;;;;;10.70;99.90;;;;;;5030652;28;19940;-79
2022/10/04 03:05:59;;;;;;;;;;;10.70;99.90;;;;;;5028550;28;19943;-80
2022/10/04 03:08:26;;;;;;;;;;;10.60;99.90;;;;;;5023990;28;20396;-80
2022/10/04 03:10:52;;;;;;;;;;;10.70;99.90;;;;;;5028746;28;20399;-80
2022/10/04 03:13:19;;;;;;;;;;;10.70;99.90;;;;;;5030017;28;19917;-80
2022/10/04 03:15:45;;;;;;;;;;;10.70;99.90;;;;;;5030473;28;19917;-80
2022/10/04 03:18:12;;;;;;;;;;;10.70;99.90;;;;;;5028870;28;20440;-79
2022/10/04 03:20:38;;;;;;;;;;;10.70;99.90;;;;;;5029566;28;19925;-79
2022/10/04 03:23:05;;;;;;;;;;;10.60;99.90;;;;;;5028304;28;20631;-80
2022/10/04 03:25:51;;;;;;;;;;;10.60;99.90;;;;;;5027872;28;19940;-80
2022/10/04 03:28:17;;;;;;;;;;;10.50;99.90;;;;;;5026927;28;19932;-80
2022/10/04 03:30:46;;;;;;;;;;;10.50;99.90;;;;;;5027969;28;19917;-79
2022/10/04 03:33:22;;;;;;;;;;;10.50;99.90;;;;;;5028300;28;19925;-79
2022/10/04 03:35:52;;;;;;;;;;;10.50;99.90;;;;;;5025494;28;19999;-80
2022/10/04 03:38:18;;;;;;;;;;;10.50;99.90;;;;;;5029330;28;19917;-80
2022/10/04 03:40:52;;;;;;;;;;;10.50;99.90;;;;;;5028439;28;20404;-81
2022/10/04 03:43:20;;;;;;;;;;;10.50;99.90;;;;;;5029349;28;19990;-81
2022/10/04 03:45:46;;;;;;;;;;;10.40;99.90;;;;;;5027131;28;20000;-82
2022/10/04 03:48:13;;;;;;;;;;;10.40;99.90;;;;;;5028434;28;20052;-79
2022/10/04 03:50:45;;;;;;;;;;;10.30;99.90;;;;;;5028977;28;19924;-82
2022/10/04 03:53:30;;;;;;;;;;;10.30;99.90;;;;;;5029847;28;19918;-80
2022/10/04 03:55:56;;;;;;;;;;;10.30;99.90;;;;;;5028011;28;19917;-81
2022/10/04 03:58:24;;;;;;;;;;;10.40;99.90;;;;;;5029455;28;20387;-80
2022/10/04 04:00:55;;;;;;;;;;;10.30;99.90;;;;;;5028829;28;19921;-80
2022/10/04 04:03:21;;;;;;;;;;;10.20;99.90;;;;;;5028979;28;19928;-80
2022/10/04 04:05:52;;;;;;;;;;;10.20;99.90;;;;;;5027597;28;19917;-80
2022/10/04 04:08:31;;;;;;;;;;;10.20;99.90;;;;;;5027669;28;19917;-81
2022/10/04 04:10:58;;;;;;;;;;;10.20;99.90;;;;;;5028878;28;19928;-80
2022/10/04 04:13:40;;;;;;;;;;;10.20;99.90;;;;;;5027686;28;19924;-80
2022/10/04 04:16:05;;;;;;;;;;;10.20;99.90;;;;;;5029045;28;20683;-80
2022/10/04 04:18:33;;;;;;;;;;;10.10;99.90;;;;;;5023752;28;20027;-79
2022/10/04 04:21:00;;;;;;;;;;;10.20;99.90;;;;;;5027427;28;19932;-79
2022/10/04 04:23:31;;;;;;;;;;;10.20;99.90;;;;;;5027677;28;19924;-79
2022/10/04 04:26:20;;;;;;;;;;;10.10;99.90;;;;;;5027846;28;19920;-79
2022/10/04 04:28:47;;;;;;;;;;;10.10;99.90;;;;;;4989061;28;19962;-81
2022/10/04 04:31:22;;;;;;;;;;;10.10;99.90;;;;;;5024035;28;19925;-81
2022/10/04 04:33:59;;;;;;;;;;;10.10;99.90;;;;;;5026966;28;19964;-82
2022/10/04 04:36:29;;;;;;;;;;;10.00;99.90;;;;;;5026147;28;19913;-83
2022/10/04 04:41:52;;;;;;;;;;;10.10;99.90;;;;;;5026466;28;19927;-80
2022/10/04 04:44:17;;;;;;;;;;;10.00;99.90;;;;;;5027917;28;19917;-81
2022/10/04 04:46:44;;;;;;;;;;;10.00;99.90;;;;;;5026313;28;19921;-81
2022/10/04 04:49:10;;;;;;;;;;;10.00;99.90;;;;;;5024713;28;19913;-81
2022/10/04 04:51:36;;;;;;;;;;;10.00;99.90;;;;;;5026020;28;19978;-82
2022/10/04 04:54:03;;;;;;;;;;;10.00;99.90;;;;;;5026308;28;19917;-82
2022/10/04 04:56:29;;;;;;;;;;;9.90;99.90;;;;;;5027997;28;19917;-82
2022/10/04 04:58:58;;;;;;;;;;;9.80;99.90;;;;;;5027847;28;19924;-83
2022/10/04 05:01:27;;;;;;;;;;;9.90;99.90;;;;;;5026361;28;19917;-85
2022/10/04 05:03:59;;;;;;;;;;;9.80;99.90;;;;;;5025906;28;20501;-80
2022/10/04 05:06:26;;;;;;;;;;;9.80;99.90;;;;;;5026864;28;20469;-82
2022/10/04 05:08:51;;;;;;;;;;;9.90;99.90;;;;;;5028024;28;19921;-82
2022/10/04 05:11:18;;;;;;;;;;;9.80;99.90;;;;;;5026149;28;19924;-80
2022/10/04 05:13:44;;;;;;;;;;;9.90;99.90;;;;;;5027408;28;20374;-80
2022/10/04 05:16:15;;;;;;;;;;;9.80;99.90;;;;;;5027300;28;19921;-80
2022/10/04 05:18:41;;;;;;;;;;;9.80;99.90;;;;;;5025132;28;19921;-79
2022/10/04 05:21:18;;;;;;;;;;;9.80;99.90;;;;;;5027007;28;19921;-80
2022/10/04 05:23:44;;;;;;;;;;;9.80;99.90;;;;;;5025352;28;19924;-83
2022/10/04 05:26:11;;;;;;;;;;;9.80;99.90;;;;;;5025761;28;19925;-81
2022/10/04 05:28:37;;;;;;;;;;;9.70;99.90;;;;;;5027585;28;19924;-80
2022/10/04 05:31:08;;;;;;;;;;;9.70;99.90;;;;;;5025052;28;19917;-81
2022/10/04 05:33:44;;;;;;;;;;;9.70;99.90;;;;;;5027841;28;19921;-80
2022/10/04 05:36:09;;;;;;;;;;;9.70;99.90;;;;;;5024758;28;19913;-83
2022/10/04 05:38:42;;;;;;;;;;;9.60;99.90;;;;;;5025291;28;20284;-82
2022/10/04 05:41:12;;;;;;;;;;;9.60;99.90;;;;;;5026761;28;20020;-82
2022/10/04 05:43:44;;;;;;;;;;;9.60;99.90;;;;;;5026373;28;20699;-81
2022/10/04 05:46:17;;;;;;;;;;;9.70;99.90;;;;;;5027069;28;19925;-82
2022/10/04 05:48:44;;;;;;;;;;;9.60;99.90;;;;;;5024127;28;19913;-81
2022/10/04 05:51:24;;;;;;;;;;;9.60;99.90;;;;;;5027549;28;19971;-82
2022/10/04 05:53:50;;;;;;;;;;;9.60;99.90;;;;;;5023771;28;19913;-81
2022/10/04 05:56:18;;;;;;;;;;;9.50;99.90;;;;;;5027711;28;19933;-89
2022/10/04 05:59:07;;;;;;;;;;;9.50;99.90;;;;;;5026310;28;19944;-83
2022/10/04 06:01:53;;;;;;;;;;;9.60;99.90;;;;;;5027224;28;19917;-83
2022/10/04 06:04:38;;;;;;;;;;;9.70;99.90;;;;;;5027856;28;19909;-83
2022/10/04 06:07:14;;;;;;;;;;;9.70;99.90;;;;;;5024080;28;20486;-82
2022/10/04 06:09:43;;;;;;;;;;;10.50;99.90;;;;;;5026286;28;20016;-84
2022/10/04 06:12:12;;;;;;;;;;;11.00;99.90;;;;;;5025792;28;20415;-85
2022/10/04 06:14:40;;;;;;;;;;;11.20;99.90;;;;;;5026224;28;19924;-83
2022/10/04 06:17:13;;;;;;;;;;;11.30;99.90;;;;;;5025320;28;19929;-83
2022/10/04 06:19:50;;;;;;;;;;;11.50;99.90;;;;;;5025520;28;19921;-83
2022/10/04 06:22:16;;;;;;;;;;;11.80;99.90;;;;;;5027139;28;19913;-83
2022/10/04 06:24:54;;;;;;;;;;;11.60;99.90;;;;;;5027885;28;19913;-83
2022/10/04 06:27:26;;;;;;;;;;;11.10;99.90;;;;;;5027578;28;20237;-83
2022/10/04 06:29:59;;;;;;;;;;;10.90;99.90;;;;;;5023185;28;20459;-84
2022/10/04 06:32:25;;;;;;;;;;;11.00;99.90;;;;;;5027643;28;20365;-84
2022/10/04 06:35:00;;;;;;;;;;;11.60;99.90;;;;;;5025452;28;19920;-84
2022/10/04 06:37:28;;;;;;;;;;;12.10;99.90;;;;;;5022165;28;19964;-83
2022/10/04 06:39:54;;;;;;;;;;;13.20;99.90;;;;;;5025805;28;20012;-84
2022/10/04 06:42:38;;;;;;;;;;;13.50;99.90;;;;;;5027362;28;20020;-85
2022/10/04 06:45:16;;;;;;;;;;;13.60;99.90;;;;;;5025151;28;19917;-85
2022/10/04 06:47:59;;;;;;;;;;;13.80;99.90;;;;;;5027985;28;20000;-79
2022/10/04 06:50:44;;;;;;;;;;;13.80;99.90;;;;;;5020284;28;19967;-78
2022/10/04 06:53:19;;;;;;;;;;;14.20;99.90;;;;;;5025200;28;19921;-78
2022/10/04 06:55:45;;;;;;;;;;;14.50;99.90;;;;;;5030730;28;20718;-78
2022/10/04 06:58:31;;;;;;;;;;;14.70;99.90;;;;;;5030901;28;19978;-78
2022/10/04 07:00:57;;;;;;;;;;;14.80;99.90;;;;;;5030804;28;19924;-78
2022/10/04 07:03:46;;;;;;;;;;;15.10;99.90;;;;;;5029323;28;19913;-78
2022/10/04 07:06:12;;;;;;;;;;;15.30;99.90;;;;;;5000454;28;20653;-79
2022/10/04 07:08:46;;;;;;;;;;;15.40;99.90;;;;;;5029581;28;19960;-78
2022/10/04 07:11:12;;;;;;;;;;;15.60;99.90;;;;;;5029255;28;19913;-79
2022/10/04 07:13:41;;;;;;;;;;;15.60;99.90;;;;;;5030784;28;20463;-79
2022/10/04 07:16:24;;;;;;;;;;;15.60;99.90;;;;;;5030493;28;19919;-77
2022/10/04 07:19:08;;;;;;;;;;;15.80;99.90;;;;;;5026205;28;20328;-79
2022/10/04 07:21:43;;;;;;;;;;;15.70;99.90;;;;;;5030294;28;19923;-79
2022/10/04 07:24:11;;;;;;;;;;;16.10;99.90;;;;;;5029279;28;19920;-78
2022/10/04 07:26:47;;;;;;;;;;;16.20;99.90;;;;;;5029807;28;20502;-79
2022/10/04 07:29:22;;;;;;;;;;;16.40;99.90;;;;;;5028110;28;20484;-79
2022/10/04 07:31:52;;;;;;;;;;;16.50;99.90;;;;;;5022889;28;19912;-79
2022/10/04 07:34:22;;;;;;;;;;;16.70;99.90;;;;;;5029344;28;19913;-79
2022/10/04 07:36:56;;;;;;;;;;;16.80;99.90;;;;;;5028988;28;20038;-79
2022/10/04 07:39:24;;;;;;;;;;;16.80;99.90;;;;;;5029656;28;19913;-79
2022/10/04 07:42:00;;;;;;;;;;;17.20;99.90;;;;;;5029793;28;19945;-79
2022/10/04 07:44:45;;;;;;;;;;;17.50;99.90;;;;;;5029771;28;19917;-78
2022/10/04 07:47:18;;;;;;;;;;;18.00;99.90;;;;;;5027776;28;19981;-79
2022/10/04 07:49:44;;;;;;;;;;;18.30;99.90;;;;;;5021933;28;19944;-79
2022/10/04 07:52:22;;;;;;;;;;;18.30;99.90;;;;;;5029658;28;20013;-79
2022/10/04 07:55:01;;;;;;;;;;;18.20;99.90;;;;;;5023005;28;20741;-79
2022/10/04 07:57:32;;;;;;;;;;;18.20;99.90;;;;;;5028928;28;19913;-79
2022/10/04 08:00:10;;;;;;;;;;;18.30;99.90;;;;;;5030122;28;19912;-79
2022/10/04 08:02:41;;;;;;;;;;;18.70;99.90;;;;;;5029525;28;20387;-79
2022/10/04 08:05:22;;;;;;;;;;;18.80;99.90;;;;;;5027962;28;19966;-79
2022/10/04 08:07:50;;;;;;;;;;;18.60;99.90;;;;;;5020637;28;19917;-79
2022/10/04 08:10:16;;;;;;;;;;;18.60;99.90;;;;;;5028415;28;19913;-79
2022/10/04 08:12:54;;;;;;;;;;;18.60;99.90;;;;;;5029601;28;19924;-79
2022/10/04 08:15:19;;;;;;;;;;;18.90;99.90;;;;;;5028773;28;19913;-79
2022/10/04 08:18:03;;;;;;;;;;;19.00;99.90;;;;;;5022097;28;19928;-79
2022/10/04 08:20:32;;;;;;;;;;;19.60;99.30;;;;;;5026795;28;19920;-79
2022/10/04 08:23:18;;;;;;;;;;;20.10;98.80;;;;;;5028968;28;19913;-79
2022/10/04 08:25:59;;;;;;;;;;;19.60;98.80;;;;;;5027400;28;20384;-79
2022/10/04 08:31:44;;;;;;;;;;;20.20;96.70;;;;;;5024995;28;20407;-79
2022/10/04 08:34:30;;;;;;;;;;;20.30;96.10;;;;;;4987994;28;20008;-79
2022/10/04 08:37:02;;;;;;;;;;;20.60;96.30;;;;;;4988286;28;19920;-79
2022/10/04 08:39:34;;;;;;;;;;;20.80;95.40;;;;;;5027395;28;19913;-79
2022/10/04 08:42:21;;;;;;;;;;;21.10;94.90;;;;;;5027454;28;19916;-79
2022/10/04 08:44:46;;;;;;;;;;;21.10;95.10;;;;;;5025594;28;19913;-79
2022/10/04 08:47:12;;;;;;;;;;;20.90;94.80;;;;;;5028506;28;19924;-79
2022/10/04 08:49:56;;;;;;;;;;;21.00;95.10;;;;;;5026791;28;19913;-79
2022/10/04 08:52:41;;;;;;;;;;;20.90;96.90;;;;;;5028139;28;20019;-79
2022/10/04 08:55:10;;;;;;;;;;;21.00;94.90;;;;;;5028294;28;20339;-79
2022/10/04 08:57:48;;;;;;;;;;;21.10;94.60;;;;;;5028178;28;19987;-79
2022/10/04 09:00:27;;;;;;;;;;;21.10;94.40;;;;;;5027774;28;19995;-79
2022/10/04 09:02:56;;;;;;;;;;;21.00;95.40;;;;;;5020904;28;19936;-79
2022/10/04 09:05:40;;;;;;;;;;;21.30;94.70;;;;;;5027648;28;20362;-79
2022/10/04 09:08:21;;;;;;;;;;;21.20;95.00;;;;;;5026363;28;20380;-79
2022/10/04 09:11:05;;;;;;;;;;;20.90;94.30;;;;;;5026059;28;20372;-79
2022/10/04 09:13:50;;;;;;;;;;;20.90;93.50;;;;;;5026640;28;19952;-79
2022/10/04 09:16:22;;;;;;;;;;;21.60;93.10;;;;;;4993670;28;20503;-79
2022/10/04 09:19:11;;;;;;;;;;;21.90;92.80;;;;;;5026657;28;19952;-79
2022/10/04 09:21:46;;;;;;;;;;;22.50;93.50;;;;;;4989888;28;19925;-79
2022/10/04 09:24:30;;;;;;;;;;;22.40;91.20;;;;;;5018176;28;19952;-79
2022/10/04 09:27:18;;;;;;;;;;;22.30;92.80;;;;;;5027774;28;19928;-79
2022/10/04 09:29:53;;;;;;;;;;;21.50;93.40;;;;;;5012042;28;19913;-79
2022/10/04 09:32:37;;;;;;;;;;;20.90;93.80;;;;;;5028103;28;19914;-79
2022/10/04 09:35:09;;;;;;;;;;;20.60;94.20;;;;;;5027145;28;19967;-79
2022/10/04 09:37:53;;;;;;;;;;;20.30;96.10;;;;;;5026736;28;19944;-79
2022/10/04 09:40:24;;;;;;;;;;;20.70;95.90;;;;;;5026059;28;19920;-79
2022/10/04 09:42:50;;;;;;;;;;;20.80;98.10;;;;;;5027745;28;20434;-79
2022/10/04 09:45:20;;;;;;;;;;;20.80;95.20;;;;;;5027382;28;19920;-79
2022/10/04 09:48:06;;;;;;;;;;;21.20;95.50;;;;;;5026211;28;19917;-79
2022/10/04 09:50:41;;;;;;;;;;;21.20;97.30;;;;;;5019892;28;19917;-79
2022/10/04 09:53:27;;;;;;;;;;;20.50;96.60;;;;;;5023287;28;19920;-79
2022/10/04 09:55:59;;;;;;;;;;;20.30;95.80;;;;;;5012000;28;20000;-80
2022/10/04 09:58:42;;;;;;;;;;;20.20;96.10;;;;;;5026653;28;19914;-79
2022/10/04 10:01:24;;;;;;;;;;;20.30;97.60;;;;;;5027269;28;19982;-79
2022/10/04 10:03:53;;;;;;;;;;;20.80;98.90;;;;;;5027282;28;19909;-79
2022/10/04 10:06:25;;;;;;;;;;;20.50;97.40;;;;;;5026928;28;19917;-79
2022/10/04 10:09:09;;;;;;;;;;;20.50;97.30;;;;;;5025554;28;19920;-79
2022/10/04 10:14:41;;;;;;;;;;;20.40;97.90;;;;;;5023246;28;19963;-79
2022/10/04 10:17:13;;;;;;;;;;;20.60;97.30;;;;;;5023442;28;19964;-79
2022/10/04 10:19:54;;;;;;;;;;;20.60;97.80;;;;;;5022292;28;19913;-79
2022/10/04 10:22:19;;;;;;;;;;;20.70;99.90;;;;;;5029620;28;20392;-79
2022/10/04 10:24:45;;;;;;;;;;;21.20;97.40;;;;;;5031158;28;19919;-79
2022/10/04 10:27:29;;;;;;;;;;;20.70;97.40;;;;;;5028984;28;20366;-79
2022/10/04 10:30:15;;;;;;;;;;;20.70;98.40;;;;;;5023194;28;20369;-79
2022/10/04 10:32:41;;;;;;;;;;;20.90;99.90;;;;;;5025334;28;19913;-79
2022/10/04 10:35:15;;;;;;;;;;;20.80;99.00;;;;;;5029668;28;19982;-79
2022/10/04 10:37:50;;;;;;;;;;;21.10;97.80;;;;;;5031650;28;19913;-79
2022/10/04 10:40:15;;;;;;;;;;;20.80;97.70;;;;;;5029253;28;19913;-78
2022/10/04 10:42:44;;;;;;;;;;;20.90;99.20;;;;;;5031172;28;19988;-80
2022/10/04 10:45:10;;;;;;;;;;;21.20;98.60;;;;;;5030580;28;19924;-79
2022/10/04 10:47:59;;;;;;;;;;;20.90;97.20;;;;;;5029258;28;19917;-80
2022/10/04 10:50:24;;;;;;;;;;;20.50;98.20;;;;;;5028342;28;19917;-80
2022/10/04 10:53:09;;;;;;;;;;;20.40;98.10;;;;;;5030875;28;20005;-79
2022/10/04 10:55:43;;;;;;;;;;;20.80;97.40;;;;;;5028823;28;19909;-80
2022/10/04 10:58:21;;;;;;;;;;;20.60;98.00;;;;;;5030651;28;20413;-79
2022/10/04 11:01:02;;;;;;;;;;;20.40;98.00;;;;;;5026767;28;19913;-79
2022/10/04 11:03:30;;;;;;;;;;;20.40;99.90;;;;;;5030640;28;19913;-79
2022/10/04 11:06:02;;;;;;;;;;;20.10;98.00;;;;;;5030089;28;19913;-80
2022/10/04 11:08:30;;;;;;;;;;;20.30;98.40;;;;;;5028350;28;19956;-80
2022/10/04 11:11:20;;;;;;;;;;;20.00;98.70;;;;;;5030573;28;19983;-79
2022/10/04 11:14:06;;;;;;;;;;;20.00;99.00;;;;;;5028011;28;20490;-79
2022/10/04 11:16:42;;;;;;;;;;;20.10;98.10;;;;;;5029398;28;19913;-79
2022/10/04 11:19:19;;;;;;;;;;;20.10;98.90;;;;;;5028769;28;19921;-79
2022/10/04 11:21:49;;;;;;;;;;;20.30;98.80;;;;;;5029964;28;19913;-80
2022/10/04 11:24:36;;;;;;;;;;;20.40;99.90;;;;;;5028228;28;20007;-79
2022/10/04 11:27:17;;;;;;;;;;;20.30;99.90;;;;;;5027794;28;19921;-79
2022/10/04 11:29:57;;;;;;;;;;;19.90;99.70;;;;;;5028265;28;20007;-79
2022/10/04 11:32:44;;;;;;;;;;;20.00;99.90;;;;;;5021168;28;20442;-79
2022/10/04 11:35:10;;;;;;;;;;;20.00;99.90;;;;;;5028221;28;19921;-80
2022/10/04 11:37:46;;;;;;;;;;;20.00;99.90;;;;;;5030040;28;19968;-79
2022/10/04 11:40:30;;;;;;;;;;;20.10;99.90;;;;;;5029222;28;19913;-79
2022/10/04 11:42:56;;;;;;;;;;;20.10;99.90;;;;;;5028039;28;19913;-80
2022/10/04 11:45:35;;;;;;;;;;;20.40;99.90;;;;;;5028765;28;19917;-80
2022/10/04 11:48:13;;;;;;;;;;;20.30;99.90;;;;;;5028157;28;19917;-79
2022/10/04 11:50:53;;;;;;;;;;;20.20;99.90;;;;;;5029501;28;19914;-80
2022/10/04 11:53:35;;;;;;;;;;;20.10;99.90;;;;;;5026616;28;20022;-80
2022/10/04 11:56:03;;;;;;;;;;;20.00;99.90;;;;;;5029988;28;19913;-80
2022/10/04 11:58:34;;;;;;;;;;;20.20;99.90;;;;;;5029326;28;19956;-80
2022/10/04 12:01:14;;;;;;;;;;;20.10;99.90;;;;;;5029913;28;20554;-80
2022/10/04 12:03:43;;;;;;;;;;;20.20;99.90;;;;;;5028572;28;20379;-80
2022/10/04 12:06:33;;;;;;;;;;;20.30;99.90;;;;;;5029142;28;19913;-79
2022/10/04 12:09:17;;;;;;;;;;;20.10;99.90;;;;;;5028036;28;19980;-80
2022/10/04 12:14:45;;;;;;;;;;;20.20;99.90;;;;;;5028955;28;20005;-80
2022/10/04 12:17:47;;;;;;;;;;;20.00;99.90;;;;;;5023026;28;19925;-80
2022/10/04 12:20:28;;;;;;;;;;;20.20;99.90;;;;;;4989443;28;19917;-80
2022/10/04 12:23:12;;;;;;;;;;;20.50;99.90;;;;;;5022940;28;19948;-80
2022/10/04 12:25:55;;;;;;;;;;;20.40;99.90;;;;;;5026739;28;19951;-79
2022/10/04 12:28:33;;;;;;;;;;;20.20;99.90;;;;;;5028306;28;19921;-80
2022/10/04 12:31:15;;;;;;;;;;;20.10;99.90;;;;;;5026426;28;19913;-80
2022/10/04 12:34:01;;;;;;;;;;;20.10;99.50;;;;;;5028920;28;19925;-80
2022/10/04 12:36:35;;;;;;;;;;;20.20;99.90;;;;;;5028235;28;19917;-80
2022/10/04 12:39:14;;;;;;;;;;;20.30;99.90;;;;;;5021226;28;19913;-80
2022/10/04 12:41:44;;;;;;;;;;;20.30;99.90;;;;;;5027107;28;19909;-80
2022/10/04 12:44:25;;;;;;;;;;;20.30;99.90;;;;;;5028240;28;19913;-80
2022/10/04 12:47:00;;;;;;;;;;;20.50;99.90;;;;;;5026522;28;19917;-80
2022/10/04 12:49:25;;;;;;;;;;;20.50;99.90;;;;;;5024936;28;19936;-80
2022/10/04 12:52:00;;;;;;;;;;;20.50;99.90;;;;;;5028872;28;20360;-80
2022/10/04 12:54:37;;;;;;;;;;;20.30;98.60;;;;;;5028684;28;20020;-80
2022/10/04 12:57:03;;;;;;;;;;;20.50;99.90;;;;;;5025130;28;19940;-80
2022/10/04 12:59:39;;;;;;;;;;;20.50;99.90;;;;;;5028193;28;19913;-80
2022/10/04 13:02:13;;;;;;;;;;;20.20;99.10;;;;;;5027935;28;19920;-80
2022/10/04 13:04:44;;;;;;;;;;;20.30;99.90;;;;;;5028016;28;19913;-79
2022/10/04 13:07:28;;;;;;;;;;;20.20;99.40;;;;;;5028543;28;19916;-80
2022/10/04 13:10:08;;;;;;;;;;;20.40;99.90;;;;;;5027797;28;19920;-80
2022/10/04 13:12:52;;;;;;;;;;;20.20;99.00;;;;;;5020483;28;19947;-80
2022/10/04 13:15:33;;;;;;;;;;;20.20;99.50;;;;;;5026813;28;19917;-80
2022/10/04 13:17:59;;;;;;;;;;;20.10;96.90;;;;;;5019790;28;19967;-80
2022/10/04 13:20:25;;;;;;;;;;;20.00;97.50;;;;;;5026409;28;19917;-80
2022/10/04 13:23:05;;;;;;;;;;;20.10;97.80;;;;;;5028510;28;20657;-80
2022/10/04 13:25:30;;;;;;;;;;;20.10;97.90;;;;;;5026983;28;19913;-80
2022/10/04 13:28:01;;;;;;;;;;;20.10;97.60;;;;;;5027742;28;19967;-80
2022/10/04 13:30:31;;;;;;;;;;;20.00;97.00;;;;;;5023271;28;19920;-80
2022/10/04 13:33:09;;;;;;;;;;;20.00;97.70;;;;;;5027866;28;19921;-80
2022/10/04 13:35:57;;;;;;;;;;;20.10;96.70;;;;;;5027721;28;19913;-80
2022/10/04 13:38:29;;;;;;;;;;;20.20;97.00;;;;;;5026341;28;19951;-80
2022/10/04 13:40:55;;;;;;;;;;;20.30;98.00;;;;;;5026743;28;19909;-80
2022/10/04 13:43:39;;;;;;;;;;;20.30;96.50;;;;;;5027534;28;19983;-80
2022/10/04 13:46:04;;;;;;;;;;;20.30;98.10;;;;;;5023591;28;19918;-80
2022/10/04 13:48:33;;;;;;;;;;;20.50;98.00;;;;;;5027383;28;20466;-80
2022/10/04 13:51:02;;;;;;;;;;;20.40;97.50;;;;;;5026602;28;19913;-80
2022/10/04 13:56:41;;;;;;;;;;;20.20;94.60;;;;;;5027671;28;19939;-80
2022/10/04 13:59:06;;;;;;;;;;;20.10;96.00;;;;;;5023447;28;19920;-80
2022/10/04 14:01:32;;;;;;;;;;;20.20;98.00;;;;;;5027682;28;19917;-80
2022/10/04 14:04:09;;;;;;;;;;;20.30;97.20;;;;;;5028257;28;19913;-79
2022/10/04 14:06:51;;;;;;;;;;;20.30;95.90;;;;;;5025548;28;19924;-80
2022/10/04 14:09:29;;;;;;;;;;;20.30;95.60;;;;;;5026695;28;19941;-80
2022/10/04 14:12:18;;;;;;;;;;;20.10;97.30;;;;;;5026424;28;19960;-80
2022/10/04 14:14:46;;;;;;;;;;;20.20;97.40;;;;;;5027495;28;19920;-80
2022/10/04 14:17:31;;;;;;;;;;;20.20;96.90;;;;;;5024670;28;19921;-80
2022/10/04 14:20:10;;;;;;;;;;;20.20;96.30;;;;;;5024835;28;19913;-80
2022/10/04 14:22:40;;;;;;;;;;;20.30;95.80;;;;;;5019302;28;20018;-80
2022/10/04 14:25:26;;;;;;;;;;;20.30;96.60;;;;;;5026966;28;19917;-80
2022/10/04 14:27:51;;;;;;;;;;;20.30;95.90;;;;;;5025936;28;19953;-80
2022/10/04 14:30:36;;;;;;;;;;;20.10;94.90;;;;;;5027573;28;20395;-80
2022/10/04 14:33:07;;;;;;;;;;;19.90;94.50;;;;;;5026162;28;20770;-80
2022/10/04 14:35:34;;;;;;;;;;;19.90;95.10;;;;;;5027324;28;19935;-80
2022/10/04 14:38:23;;;;;;;;;;;19.90;95.40;;;;;;5027252;28;20730;-79
2022/10/04 14:40:56;;;;;;;;;;;20.00;94.10;;;;;;5018687;28;19948;-80
2022/10/04 14:43:40;;;;;;;;;;;19.90;95.40;;;;;;5026670;28;19921;-80
2022/10/04 14:46:18;;;;;;;;;;;20.00;95.90;;;;;;5023868;28;19932;-80
2022/10/04 14:49:10;;;;;;;;;;;19.90;95.60;;;;;;5024107;28;19935;-80
2022/10/04 14:51:52;;;;;;;;;;;19.90;95.10;;;;;;5022502;28;19917;-80
2022/10/04 14:54:21;;;;;;;;;;;19.70;95.30;;;;;;5022973;28;19922;-81
2022/10/04 14:57:02;;;;;;;;;;;19.80;97.40;;;;;;5024875;28;19912;-80
2022/10/04 14:59:27;;;;;;;;;;;19.80;96.40;;;;;;5027424;28;19913;-80
2022/10/04 15:01:59;;;;;;;;;;;19.80;97.00;;;;;;5025578;28;19977;-80
2022/10/04 15:04:33;;;;;;;;;;;19.90;94.90;;;;;;5019422;28;19913;-80
2022/10/04 15:07:14;;;;;;;;;;;20.00;96.30;;;;;;5026853;28;20296;-80
2022/10/04 15:09:45;;;;;;;;;;;20.00;96.20;;;;;;5031055;28;19960;-80
2022/10/04 15:12:23;;;;;;;;;;;19.90;96.90;;;;;;5028091;28;19913;-80